Time;durP1;ratioP1;P1;durP2;ratioP2;P2;SDS_P1;SDS_P2;PMS_P1;PMS_P2;Temp;Humidity;BMP_temperature;BMP_pressure;BME280_temperature;BME280_humidity;BME280_pressure;Samples;Min_cycle;Max_cycle;Signal;HPM_P1;HPM_P2
2023/06/19 00:02:28;;;;;;;1.40;0.90;;;;;;;-145.06;100.00;60892.56;5858241;23;20058;-92
2023/06/19 00:05:07;;;;;;;1.00;0.90;;;;;;;-145.06;100.00;60892.56;5858295;23;20018;-92
2023/06/19 00:07:46;;;;;;;0.60;0.55;;;;;;;-145.06;100.00;60892.56;5859980;23;20015;-91
2023/06/19 00:10:25;;;;;;;1.67;1.02;;;;;;;-145.06;100.00;60892.56;5860041;23;20002;-89
2023/06/19 00:13:05;;;;;;;1.27;0.93;;;;;;;-145.06;100.00;60892.56;5859628;23;20011;-92
2023/06/19 00:15:44;;;;;;;0.95;0.70;;;;;;;-145.06;100.00;60892.56;5859824;23;20034;-92
2023/06/19 00:18:23;;;;;;;0.88;0.60;;;;;;;-145.06;100.00;60892.56;5870434;23;20078;-91
2023/06/19 00:21:05;;;;;;;1.67;1.02;;;;;;;-145.06;100.00;60892.56;5859751;23;20014;-91
2023/06/19 00:23:44;;;;;;;0.75;0.63;;;;;;;-145.06;100.00;60892.56;5859648;23;20015;-91
2023/06/19 00:26:25;;;;;;;1.00;0.77;;;;;;;-145.06;100.00;60892.56;5859212;23;20006;-90
2023/06/19 00:29:04;;;;;;;1.00;0.90;;;;;;;-145.06;100.00;60892.56;5859731;23;20010;-90
2023/06/19 00:31:43;;;;;;;1.17;0.90;;;;;;;-145.06;100.00;60892.56;5859529;23;20003;-90
2023/06/19 00:34:24;;;;;;;1.00;0.88;;;;;;;-145.06;100.00;60892.56;5859027;23;20007;-91
2023/06/19 00:37:03;;;;;;;0.75;0.65;;;;;;;-145.06;100.00;60892.56;5860106;23;20014;-90
2023/06/19 00:39:42;;;;;;;1.10;0.85;;;;;;;-145.06;100.00;60892.56;5859067;23;20011;-92
2023/06/19 00:42:24;;;;;;;1.08;0.85;;;;;;;-145.06;100.00;60892.56;5859799;23;20003;-91
2023/06/19 00:45:03;;;;;;;0.73;0.68;;;;;;;-145.06;100.00;60892.56;5859673;23;20019;-92
2023/06/19 00:47:43;;;;;;;1.27;0.88;;;;;;;-145.06;100.00;60892.56;5858971;23;20438;-91
2023/06/19 00:50:22;;;;;;;1.05;0.85;;;;;;;-145.06;100.00;60892.56;5859470;23;20438;-91
2023/06/19 00:53:03;;;;;;;0.73;0.70;;;;;;;-145.06;100.00;60892.56;5859459;23;20007;-93
2023/06/19 00:55:43;;;;;;;0.95;0.80;;;;;;;-145.06;100.00;60892.56;5859482;23;20006;-93
2023/06/19 00:58:22;;;;;;;0.82;0.73;;;;;;;23.19;100.00;60892.56;5859423;23;20038;-91
2023/06/19 01:01:03;;;;;;;1.55;0.85;;;;;;;-145.06;100.00;60892.56;5859137;23;20238;-92
2023/06/19 01:03:43;;;;;;;0.88;0.65;;;;;;;-145.06;100.00;60892.56;5859562;23;20015;-91
2023/06/19 01:06:27;;;;;;;0.82;0.80;;;;;;;41.86;100.00;60892.56;5859421;23;20015;-92
2023/06/19 01:09:10;;;;;;;2.05;0.77;;;;;;;23.04;100.00;60892.56;5859162;23;20007;-92
2023/06/19 01:11:54;;;;;;;0.70;0.60;;;;;;;-145.06;100.00;60892.56;5859615;23;20002;-92
2023/06/19 01:14:58;;;;;;;0.70;0.60;;;;;;;-145.06;100.00;60892.56;5858401;23;20015;-91
2023/06/19 01:17:37;;;;;;;0.93;0.82;;;;;;;-145.06;100.00;60892.56;5859491;23;20298;-92
2023/06/19 01:20:17;;;;;;;0.80;0.70;;;;;;;-145.06;100.00;60892.56;5858694;23;20014;-91
2023/06/19 01:22:56;;;;;;;0.90;0.70;;;;;;;-145.06;100.00;60892.56;5858727;23;20003;-91
2023/06/19 01:25:35;;;;;;;;;;;;;;;-145.06;100.00;60892.56;5860130;23;20323;-91
2023/06/19 01:28:14;;;;;;;1.05;0.85;;;;;;;-145.06;100.00;60892.56;5859261;23;19906;-91
2023/06/19 01:30:56;;;;;;;0.85;0.77;;;;;;;-145.06;100.00;60892.56;5858614;23;20014;-91
2023/06/19 01:33:37;;;;;;;1.40;0.93;;;;;;;-145.06;100.00;60892.56;5859315;23;20454;-93
2023/06/19 01:36:19;;;;;;;0.75;0.70;;;;;;;-145.06;100.00;60892.56;5858016;23;20501;-92
2023/06/19 01:38:59;;;;;;;1.10;0.90;;;;;;;-145.06;100.00;60892.56;5858297;23;20018;-91
2023/06/19 01:41:39;;;;;;;0.93;0.73;;;;;;;-145.06;100.00;60892.56;5858872;23;20002;-91
2023/06/19 01:44:19;;;;;;;0.77;0.68;;;;;;;-145.06;100.00;60892.56;5858215;23;20011;-92
2023/06/19 01:46:58;;;;;;;0.95;0.88;;;;;;;-145.06;100.00;60892.56;5859274;23;20062;-91
2023/06/19 01:49:37;;;;;;;1.00;0.90;;;;;;;-145.06;100.00;60892.56;5858901;23;20015;-91
2023/06/19 01:52:17;;;;;;;0.75;0.70;;;;;;;-145.06;100.00;60892.56;5858231;23;20175;-92
2023/06/19 01:54:56;;;;;;;1.10;1.00;;;;;;;-145.06;100.00;60892.56;5858665;23;20007;-93
2023/06/19 01:57:36;;;;;;;1.13;1.00;;;;;;;-145.06;100.00;60892.56;5858721;23;20006;-90
2023/06/19 02:00:15;;;;;;;0.82;0.73;;;;;;;-145.06;100.00;60892.56;5859292;23;20006;-91
2023/06/19 02:02:54;;;;;;;0.85;0.80;;;;;;;-145.06;100.00;60892.56;5858321;23;19999;-92
2023/06/19 02:05:39;;;;;;;1.00;0.80;;;;;;;-145.06;100.00;60892.56;5858834;23;20018;-91
2023/06/19 02:08:17;;;;;;;0.80;0.80;;;;;;;-145.06;100.00;60892.56;5858489;23;20097;-91
2023/06/19 02:10:56;;;;;;;1.33;0.90;;;;;;;-145.06;100.00;60892.56;5858056;23;20046;-91
2023/06/19 02:13:36;;;;;;;1.00;0.90;;;;;;;-145.06;100.00;60892.56;5857017;23;20011;-91
2023/06/19 02:16:15;;;;;;;0.82;0.82;;;;;;;22.25;100.00;60892.56;5857079;23;20007;-91
2023/06/19 02:18:55;;;;;;;0.73;0.73;;;;;;;22.22;100.00;60892.56;5857732;23;20011;-91
2023/06/19 02:21:34;;;;;;;0.93;0.82;;;;;;;-145.06;100.00;60892.56;5857034;23;20247;-91
2023/06/19 02:24:13;;;;;;;0.73;0.68;;;;;;;-145.06;100.00;60892.56;5857518;23;20050;-92
2023/06/19 02:26:52;;;;;;;1.00;0.90;;;;;;;-145.06;100.00;60892.56;5856808;23;20014;-91
2023/06/19 02:29:33;;;;;;;1.05;0.80;;;;;;;22.07;100.00;60892.56;5856656;23;20450;-91
2023/06/19 02:32:12;;;;;;;2.40;1.00;;;;;;;-145.06;100.00;60892.56;5857190;23;20011;-92
2023/06/19 02:34:51;;;;;;;0.90;0.75;;;;;;;-145.06;100.00;60892.56;5856739;23;20007;-92
2023/06/19 02:37:30;;;;;;;1.00;0.70;;;;;;;-145.06;100.00;60892.56;5857349;23;20014;-92
2023/06/19 02:40:10;;;;;;;1.20;1.00;;;;;;;-145.06;100.00;60892.56;5856998;23;20086;-92
2023/06/19 02:42:49;;;;;;;1.05;0.80;;;;;;;-145.06;100.00;60892.56;5857005;23;19999;-91
2023/06/19 02:45:28;;;;;;;1.10;1.00;;;;;;;-145.06;100.00;60892.56;5859999;23;20015;-91
2023/06/19 02:48:08;;;;;;;1.10;0.85;;;;;;;-145.06;100.00;60892.56;5881223;23;19994;-92
2023/06/19 02:50:47;;;;;;;1.00;0.85;;;;;;;-145.06;100.00;60892.56;5875856;23;20019;-91
2023/06/19 02:53:25;;;;;;;1.42;1.10;;;;;;;22.05;100.00;60892.56;5857435;23;20010;-91
2023/06/19 02:56:04;;;;;;;1.00;0.90;;;;;;;-145.06;100.00;60892.56;5857334;23;20434;-91
2023/06/19 02:58:43;;;;;;;1.03;0.90;;;;;;;-145.06;100.00;60892.56;5857179;23;20010;-91
2023/06/19 03:01:22;;;;;;;1.02;0.80;;;;;;;-145.06;100.00;60892.56;5856645;23;20334;-93
2023/06/19 03:04:04;;;;;;;0.90;0.70;;;;;;;-145.06;100.00;60892.56;5857500;23;20014;-92
2023/06/19 03:06:43;;;;;;;1.20;1.00;;;;;;;-145.06;100.00;60892.56;5856154;23;20055;-91
2023/06/19 03:09:22;;;;;;;1.20;1.10;;;;;;;-145.06;100.00;60892.56;5856755;23;20011;-91
2023/06/19 03:12:01;;;;;;;1.15;0.90;;;;;;;-145.06;100.00;60892.56;5857520;23;20235;-92
2023/06/19 03:14:40;;;;;;;;;;;;;;;-145.06;100.00;60892.56;5806145;23;1267570;-92
2023/06/19 03:17:19;;;;;;;0.88;0.77;;;;;;;-145.06;100.00;60892.56;5857737;23;19906;-91
2023/06/19 03:19:58;;;;;;;1.30;0.90;;;;;;;-145.06;100.00;60892.56;5858426;23;20034;-92
2023/06/19 03:22:39;;;;;;;1.30;1.10;;;;;;;21.40;100.00;60892.56;5857934;23;20019;-92
2023/06/19 03:25:19;;;;;;;1.65;0.90;;;;;;;-145.06;100.00;60892.56;5857445;23;20038;-92
2023/06/19 03:27:58;;;;;;;1.52;1.13;;;;;;;-145.06;100.00;60892.56;5857852;23;20010;-92
2023/06/19 03:30:37;;;;;;;2.40;1.25;;;;;;;-145.06;100.00;60892.56;5857663;23;20019;-91
2023/06/19 03:33:16;;;;;;;1.00;0.90;;;;;;;-145.06;100.00;60892.56;5857901;23;20003;-90
2023/06/19 03:35:55;;;;;;;1.52;1.05;;;;;;;-145.06;100.00;60892.56;5857452;23;20316;-91
2023/06/19 03:38:34;;;;;;;0.93;0.88;;;;;;;-145.06;100.00;60892.56;5857082;23;20011;-91
2023/06/19 03:41:14;;;;;;;;;;;;;;;-145.06;100.00;60892.56;5859446;23;20011;-91
2023/06/19 03:43:53;;;;;;;1.10;1.00;;;;;;;21.20;100.00;60892.56;5859798;23;19909;-92
2023/06/19 03:46:32;;;;;;;0.98;0.88;;;;;;;-145.06;100.00;60892.56;5860092;23;20014;-90
2023/06/19 03:49:11;;;;;;;0.88;0.77;;;;;;;-145.06;100.00;60892.56;5859775;23;20007;-91
2023/06/19 03:51:50;;;;;;;1.00;0.90;;;;;;;-145.06;100.00;60892.56;5859155;23;20011;-91
2023/06/19 03:54:29;;;;;;;1.13;0.90;;;;;;;-145.06;100.00;60892.56;5860022;23;20015;-92
2023/06/19 03:57:08;;;;;;;0.98;0.88;;;;;;;-145.06;100.00;60892.56;5859610;23;20239;-91
2023/06/19 03:59:47;;;;;;;1.02;0.80;;;;;;;-145.06;100.00;60892.56;5860541;23;20010;-91
2023/06/19 04:02:27;;;;;;;0.88;0.82;;;;;;;-145.06;100.00;60892.56;5859433;23;20007;-90
2023/06/19 04:05:06;;;;;;;0.80;0.70;;;;;;;-145.06;100.00;60892.56;5859435;23;20031;-91
2023/06/19 04:07:45;;;;;;;0.93;0.85;;;;;;;-145.06;100.00;60892.56;5860051;23;20081;-91
2023/06/19 04:10:24;;;;;;;0.80;0.80;;;;;;;-145.06;100.00;60892.56;5859184;23;20312;-90
2023/06/19 04:13:04;;;;;;;0.90;0.75;;;;;;;21.20;100.00;60892.56;5857951;23;20010;-90
2023/06/19 04:15:46;;;;;;;1.17;0.80;;;;;;;-145.06;100.00;60892.56;5863766;23;20006;-91
2023/06/19 04:18:27;;;;;;;1.00;0.70;;;;;;;-145.06;100.00;60892.56;5862370;23;20003;-90
2023/06/19 04:21:06;;;;;;;0.93;0.70;;;;;;;-145.06;100.00;60892.56;5870820;23;20331;-90
2023/06/19 04:23:44;;;;;;;0.75;0.60;;;;;;;-145.06;100.00;60892.56;5860941;23;20011;-90
2023/06/19 04:26:29;;;;;;;0.75;0.70;;;;;;;-145.06;100.00;60892.56;5862193;23;20014;-91
2023/06/19 04:29:16;;;;;;;0.70;0.60;;;;;;;-145.06;100.00;60892.56;5860930;23;20011;-92
2023/06/19 04:35:51;;;;;;;0.70;0.60;;;;;;;-145.06;100.00;60892.56;5841967;23;20027;-90
2023/06/19 04:38:30;;;;;;;0.85;0.70;;;;;;;21.33;100.00;60892.56;5860072;23;20082;-90
2023/06/19 04:41:09;;;;;;;1.15;0.88;;;;;;;-145.06;100.00;60892.56;5859837;23;20011;-92
2023/06/19 04:43:48;;;;;;;1.00;0.85;;;;;;;-145.06;100.00;60892.56;5863801;23;20038;-91
2023/06/19 04:47:00;;;;;;;0.80;0.68;;;;;;;-145.06;100.00;60892.56;5865376;23;20044;-91
2023/06/19 04:49:40;;;;;;;1.05;0.80;;;;;;;-145.06;100.00;60892.56;5859518;23;20010;-92
2023/06/19 04:52:19;;;;;;;0.75;0.63;;;;;;;-145.06;100.00;60892.56;5858652;23;20023;-91
2023/06/19 04:54:58;;;;;;;0.93;0.70;;;;;;;-145.06;100.00;60892.56;5859910;23;20006;-90
2023/06/19 04:57:40;;;;;;;0.55;0.50;;;;;;;-145.06;100.00;60892.56;5860160;23;20279;-92
2023/06/19 05:00:19;;;;;;;0.68;0.60;;;;;;;-145.06;100.00;60892.56;5860398;23;20007;-92
2023/06/19 05:03:00;;;;;;;0.65;0.60;;;;;;;-145.06;100.00;60892.56;5859963;23;20085;-91
2023/06/19 05:05:39;;;;;;;0.82;0.70;;;;;;;-145.06;100.00;60892.56;5860381;23;20042;-91
2023/06/19 05:08:18;;;;;;;0.73;0.60;;;;;;;-145.06;100.00;60892.56;5859685;23;20011;-91
2023/06/19 05:10:57;;;;;;;1.08;0.63;;;;;;;-145.06;100.00;60892.56;5860218;23;20038;-90
2023/06/19 05:13:36;;;;;;;0.93;0.80;;;;;;;-145.06;100.00;60892.56;5860325;23;20414;-92
2023/06/19 05:16:16;;;;;;;0.93;0.82;;;;;;;-145.06;100.00;60892.56;5859842;23;20327;-92
2023/06/19 05:18:55;;;;;;;0.90;0.80;;;;;;;-145.06;100.00;60892.56;5859811;23;20011;-91
2023/06/19 05:21:34;;;;;;;0.88;0.60;;;;;;;21.54;100.00;60892.56;5859863;23;20006;-91
2023/06/19 05:24:16;;;;;;;1.05;0.75;;;;;;;-145.06;100.00;60892.56;5859758;23;20007;-92
2023/06/19 05:26:55;;;;;;;0.70;0.57;;;;;;;-145.06;100.00;60892.56;5860555;23;20006;-91
2023/06/19 05:29:34;;;;;;;0.70;0.65;;;;;;;-145.06;100.00;60892.56;5860471;23;20085;-93
2023/06/19 05:32:14;;;;;;;1.02;0.65;;;;;;;-145.06;100.00;60892.56;5860572;23;20031;-92
2023/06/19 05:34:52;;;;;;;0.70;0.50;;;;;;;-145.06;100.00;60892.56;5860152;23;20010;-93
2023/06/19 05:37:31;;;;;;;0.80;0.60;;;;;;;-145.06;100.00;60892.56;5859864;23;20010;-92
2023/06/19 05:40:11;;;;;;;0.67;0.57;;;;;;;-145.06;100.00;60892.56;5860591;23;20010;-91
2023/06/19 05:42:50;;;;;;;0.52;0.50;;;;;;;-145.06;100.00;60892.56;5860531;23;20315;-92
2023/06/19 05:45:52;;;;;;;0.50;0.50;;;;;;;-145.06;100.00;60892.56;5860974;23;20011;-91
2023/06/19 05:48:31;;;;;;;0.82;0.50;;;;;;;-145.06;100.00;60892.56;5860316;23;20007;-91
2023/06/19 05:51:10;;;;;;;0.60;0.50;;;;;;;187.52;100.00;60892.56;5859979;23;20434;-92
2023/06/19 05:53:52;;;;;;;0.43;0.40;;;;;;;-145.06;100.00;60892.56;5860285;23;20015;-93
2023/06/19 05:56:32;;;;;;;0.95;0.57;;;;;;;-145.06;100.00;60892.56;5859749;23;20034;-92
2023/06/19 05:59:14;;;;;;;0.50;0.30;;;;;;;-145.06;100.00;60892.56;5859708;23;20003;-92
2023/06/19 06:01:55;;;;;;;0.50;0.40;;;;;;;-145.06;100.00;60892.56;5860371;23;20011;-92
2023/06/19 06:04:35;;;;;;;0.35;0.35;;;;;;;-145.06;100.00;60892.56;5859729;23;20010;-92
2023/06/19 06:07:14;;;;;;;0.40;0.32;;;;;;;-145.06;100.00;60892.56;5882945;23;20071;-93
2023/06/19 06:09:53;;;;;;;0.50;0.40;;;;;;;-145.06;100.00;60892.56;5893410;23;20018;-91
2023/06/19 06:12:35;;;;;;;0.50;0.50;;;;;;;31.47;100.00;60892.56;5896212;23;20001;-92
2023/06/19 06:15:14;;;;;;;0.30;0.30;;;;;;;-145.06;100.00;60892.56;5895133;23;20010;-91
2023/06/19 06:17:53;;;;;;;0.70;0.47;;;;;;;-145.06;100.00;60892.56;5893672;23;20330;-91
2023/06/19 06:20:32;;;;;;;0.35;0.32;;;;;;;-145.06;100.00;60892.56;5895677;23;20006;-92
2023/06/19 06:23:11;;;;;;;0.47;0.40;;;;;;;-145.06;100.00;60892.56;5894856;23;20005;-93
2023/06/19 06:25:50;;;;;;;0.63;0.45;;;;;;;-145.06;100.00;60892.56;5894005;23;20010;-91
2023/06/19 06:28:30;;;;;;;0.63;0.40;;;;;;;-145.06;100.00;60892.56;5894267;23;20006;-91
2023/06/19 06:31:09;;;;;;;0.95;0.47;;;;;;;-145.06;100.00;60892.56;5894182;23;20402;-91
2023/06/19 06:33:49;;;;;;;0.60;0.40;;;;;;;-145.06;100.00;60892.56;5894296;23;20006;-91
2023/06/19 06:36:28;;;;;;;;;;;;;;;-145.06;100.00;60892.56;5895636;23;20006;-92
2023/06/19 06:39:07;;;;;;;0.30;0.30;;;;;;;-145.06;100.00;60892.56;5894818;23;19909;-91
2023/06/19 06:41:46;;;;;;;0.45;0.40;;;;;;;-145.06;100.00;60892.56;5894930;23;20029;-91
2023/06/19 06:44:26;;;;;;;0.43;0.40;;;;;;;-145.06;100.00;60892.56;5895311;23;20018;-91
2023/06/19 06:47:05;;;;;;;0.68;0.50;;;;;;;-145.06;100.00;60892.56;5894833;23;20002;-93
2023/06/19 06:49:44;;;;;;;0.73;0.45;;;;;;;-145.06;100.00;60892.56;5895137;23;20429;-91
2023/06/19 06:52:23;;;;;;;1.33;0.60;;;;;;;-145.06;100.00;60892.56;5894388;23;20318;-91
2023/06/19 06:55:03;;;;;;;0.40;0.40;;;;;;;-145.06;100.00;60892.56;5895115;23;20010;-91
2023/06/19 06:57:42;;;;;;;0.50;0.43;;;;;;;-145.06;100.00;60892.56;5894694;23;20009;-91
2023/06/19 07:00:23;;;;;;;0.73;0.60;;;;;;;-145.06;100.00;60892.56;5894042;23;20230;-91
2023/06/19 07:03:03;;;;;;;0.60;0.60;;;;;;;-145.06;100.00;60892.56;5894474;23;20009;-93
2023/06/19 07:05:42;;;;;;;0.40;0.40;;;;;;;-145.06;100.00;60892.56;5894009;23;20009;-92
2023/06/19 07:08:21;;;;;;;0.65;0.60;;;;;;;-145.06;100.00;60892.56;5917039;23;20010;-91
2023/06/19 07:11:00;;;;;;;0.50;0.40;;;;;;;-145.06;100.00;60892.56;5895247;23;20264;-92
2023/06/19 07:13:41;;;;;;;0.50;0.47;;;;;;;-145.06;100.00;60892.56;5894486;23;20002;-90
2023/06/19 07:16:20;;;;;;;0.50;0.50;;;;;;;-145.06;100.00;60892.56;5916555;23;20014;-91
2023/06/19 07:18:59;;;;;;;0.60;0.50;;;;;;;-145.06;100.00;60892.56;5894244;23;20089;-91
2023/06/19 07:21:38;;;;;;;0.50;0.35;;;;;;;23.33;100.00;60892.56;5894657;23;20034;-91
2023/06/19 07:24:17;;;;;;;0.45;0.40;;;;;;;23.33;100.00;60892.56;5894424;23;20009;-89
2023/06/19 07:27:00;;;;;;;0.70;0.30;;;;;;;-145.06;100.00;60892.56;5894105;23;20006;-91
2023/06/19 07:29:41;;;;;;;0.65;0.60;;;;;;;-145.06;100.00;60892.56;5893858;23;20170;-91
2023/06/19 07:32:20;;;;;;;0.68;0.60;;;;;;;-145.06;100.00;60892.56;5894305;23;20002;-91
2023/06/19 07:34:59;;;;;;;0.95;0.70;;;;;;;-145.06;100.00;60892.56;5894940;23;20441;-93
2023/06/19 07:37:39;;;;;;;0.50;0.40;;;;;;;-145.06;100.00;60892.56;5893980;23;20512;-90
2023/06/19 07:40:17;;;;;;;0.65;0.50;;;;;;;-145.06;100.00;60892.56;5894452;23;20010;-91
2023/06/19 07:42:59;;;;;;;0.40;0.40;;;;;;;-145.06;100.00;60892.56;5895100;23;20006;-91
2023/06/19 07:45:38;;;;;;;0.45;0.45;;;;;;;-145.06;100.00;60892.56;5894572;23;20010;-93
2023/06/19 07:48:18;;;;;;;0.75;0.50;;;;;;;-145.06;100.00;60892.56;5895084;23;20018;-91
2023/06/19 07:50:57;;;;;;;;;;;;;;;23.65;100.00;60892.56;5894921;23;20002;-92
2023/06/19 07:53:36;;;;;;;0.70;0.50;;;;;;;-145.06;100.00;60892.56;5894391;23;19905;-92
2023/06/19 07:56:15;;;;;;;0.70;0.50;;;;;;;-145.06;100.00;60892.56;5925493;23;20010;-91
2023/06/19 07:58:54;;;;;;;0.50;0.47;;;;;;;-145.06;100.00;60892.56;5894597;23;20037;-91
2023/06/19 08:01:33;;;;;;;1.13;0.70;;;;;;;-145.06;100.00;60892.56;5894630;23;20035;-92
2023/06/19 08:04:12;;;;;;;0.70;0.65;;;;;;;-145.06;100.00;60892.56;5894481;23;20006;-92
2023/06/19 08:06:51;;;;;;;0.68;0.47;;;;;;;-145.06;100.00;60892.56;5894163;23;20006;-91
2023/06/19 08:09:30;;;;;;;1.20;0.70;;;;;;;-145.06;100.00;60892.56;5893984;23;20037;-91
2023/06/19 08:12:09;;;;;;;0.75;0.55;;;;;;;24.20;100.00;60892.56;5894484;23;20077;-91
2023/06/19 08:14:48;;;;;;;0.90;0.68;;;;;;;-145.06;100.00;60892.56;5894351;23;20005;-92
2023/06/19 08:17:27;;;;;;;0.68;0.55;;;;;;;-145.06;100.00;60892.56;5894567;23;20009;-92
2023/06/19 08:20:07;;;;;;;1.55;0.80;;;;;;;-145.06;100.00;60892.56;5893924;23;20010;-92
2023/06/19 08:22:46;;;;;;;0.70;0.70;;;;;;;24.52;100.00;60892.56;5894139;23;20002;-91
2023/06/19 08:25:28;;;;;;;1.13;0.80;;;;;;;-145.06;100.00;60892.56;5893995;23;20425;-92
2023/06/19 08:28:08;;;;;;;0.93;0.70;;;;;;;-145.06;100.00;60892.56;5895200;23;20436;-91
2023/06/19 08:30:47;;;;;;;1.00;0.70;;;;;;;-145.06;100.00;60892.56;5895579;23;20033;-92
2023/06/19 08:33:26;;;;;;;3.47;0.90;;;;;;;-145.06;100.00;60892.56;5895558;23;20006;-92
2023/06/19 08:36:05;;;;;;;1.10;0.75;;;;;;;-145.06;100.00;60892.56;5927325;23;20405;-91
2023/06/19 08:38:44;;;;;;;0.90;0.70;;;;;;;-145.06;100.00;60892.56;5896338;23;20085;-92
2023/06/19 08:41:23;;;;;;;1.00;0.82;;;;;;;-145.06;100.00;60892.56;5895997;23;20006;-91
2023/06/19 08:44:03;;;;;;;1.08;0.85;;;;;;;-145.06;100.00;60892.56;5895600;23;20024;-91
2023/06/19 08:46:42;;;;;;;1.05;0.90;;;;;;;-145.06;100.00;60892.56;5895743;23;20006;-92
2023/06/19 08:49:21;;;;;;;1.10;0.75;;;;;;;-145.06;100.00;60892.56;5895089;23;20014;-92
2023/06/19 08:52:01;;;;;;;1.45;1.00;;;;;;;-145.06;100.00;60892.56;5895460;23;20081;-92
2023/06/19 08:54:44;;;;;;;0.82;0.70;;;;;;;-145.06;100.00;60892.56;5895227;23;20010;-91
2023/06/19 08:57:35;;;;;;;0.80;0.70;;;;;;;-145.06;100.00;60892.56;5894818;23;20014;-93
2023/06/19 09:00:23;;;;;;;1.00;0.90;;;;;;;-145.06;100.00;60892.56;5895249;23;20010;-92
2023/06/19 09:03:03;;;;;;;1.17;1.05;;;;;;;-145.06;100.00;60892.56;5895515;23;20014;-91
2023/06/19 09:05:49;;;;;;;1.35;0.90;;;;;;;-145.06;100.00;60892.56;5895834;23;20485;-91
2023/06/19 09:08:28;;;;;;;1.90;0.90;;;;;;;-145.06;100.00;60892.56;5895256;23;20432;-90
2023/06/19 09:11:07;;;;;;;1.85;0.90;;;;;;;-145.06;100.00;60892.56;5895257;23;20010;-92
2023/06/19 09:13:58;;;;;;;1.08;0.90;;;;;;;-145.06;100.00;60892.56;5895329;23;20006;-92
2023/06/19 09:16:39;;;;;;;1.10;0.93;;;;;;;-145.06;100.00;60892.56;5895060;23;20010;-92
2023/06/19 09:19:21;;;;;;;0.80;0.73;;;;;;;-145.06;100.00;60892.56;5895138;23;20437;-92
2023/06/19 09:22:02;;;;;;;1.40;1.02;;;;;;;-145.06;100.00;60892.56;5895395;23;20073;-92
2023/06/19 09:24:41;;;;;;;1.95;1.30;;;;;;;-145.06;100.00;60892.56;5894860;23;20010;-91
2023/06/19 09:29:51;;;;;;;1.10;0.80;;;;;;;-145.06;100.00;60892.56;5871704;23;20113;-91
2023/06/19 09:32:30;;;;;;;;;;;;;;;-145.06;100.00;60892.56;5893436;23;20041;-91
2023/06/19 09:35:09;;;;;;;0.77;0.70;;;;;;;-145.06;100.00;60892.56;5888067;23;19909;-92
2023/06/19 09:37:50;;;;;;;1.50;1.10;;;;;;;-145.06;100.00;60892.56;5886876;23;20007;-93
2023/06/19 09:40:29;;;;;;;1.50;1.15;;;;;;;-145.06;100.00;60892.56;5887917;23;20010;-91
2023/06/19 09:43:08;;;;;;;1.05;0.93;;;;;;;-145.06;100.00;60892.56;5886894;23;20006;-92
2023/06/19 09:45:54;;;;;;;1.00;0.90;;;;;;;-145.06;100.00;60892.56;5887089;23;20065;-92
2023/06/19 09:48:34;;;;;;;0.88;0.77;;;;;;;-145.06;100.00;60892.56;5887141;23;20010;-92
2023/06/19 09:51:17;;;;;;;1.02;0.90;;;;;;;-145.06;100.00;60892.56;5887587;23;20014;-92
2023/06/19 09:53:58;;;;;;;1.00;0.90;;;;;;;-145.06;100.00;60892.56;5887523;23;20006;-91
2023/06/19 09:56:38;;;;;;;0.90;0.80;;;;;;;-145.06;100.00;60892.56;5887424;23;20026;-92
2023/06/19 09:59:19;;;;;;;1.20;1.02;;;;;;;-145.06;100.00;60892.56;5887180;23;20010;-92
2023/06/19 10:01:58;;;;;;;1.00;0.90;;;;;;;-145.06;100.00;60892.56;5886442;23;20323;-91
2023/06/19 10:04:46;;;;;;;;;;;;;;;-145.06;100.00;60892.56;5887654;23;20046;-92
2023/06/19 10:07:32;;;;;;;1.15;0.80;;;;;;;-145.06;100.00;60892.56;5886848;23;19935;-92
2023/06/19 10:10:23;;;;;;;0.80;0.70;;;;;;;-145.06;100.00;60892.56;5886595;23;20010;-92
2023/06/19 10:13:14;;;;;;;1.25;0.90;;;;;;;-145.06;100.00;60892.56;5886983;23;19999;-92
2023/06/19 10:15:53;;;;;;;0.82;0.82;;;;;;;-145.06;100.00;60892.56;5886729;23;20002;-92
2023/06/19 10:18:43;;;;;;;1.10;0.90;;;;;;;-145.06;100.00;60892.56;5887331;23;20010;-92
2023/06/19 10:21:22;;;;;;;1.13;1.00;;;;;;;-145.06;100.00;60892.56;5887399;23;20010;-92
2023/06/19 10:24:02;;;;;;;1.08;0.90;;;;;;;-145.06;100.00;60892.56;5887368;23;20445;-92
2023/06/19 10:26:43;;;;;;;1.42;1.13;;;;;;;-145.06;100.00;60892.56;5886463;23;20011;-91
2023/06/19 10:29:23;;;;;;;1.05;0.95;;;;;;;-145.06;100.00;60892.56;5886435;23;20002;-91
2023/06/19 10:32:02;;;;;;;1.10;0.98;;;;;;;-145.06;100.00;60892.56;5886475;23;20007;-92
2023/06/19 10:34:47;;;;;;;;;;;;;;;-145.06;100.00;60892.56;5886681;23;20014;-92
2023/06/19 10:37:33;;;;;;;0.85;0.70;;;;;;;-145.06;100.00;60892.56;5886645;23;20132;-92
2023/06/19 10:40:12;;;;;;;1.33;1.10;;;;;;;-145.06;100.00;60892.56;5886420;23;20007;-91
2023/06/19 10:42:51;;;;;;;1.35;1.10;;;;;;;-145.06;100.00;60892.56;5885780;23;20030;-92
2023/06/19 10:45:30;;;;;;;1.05;0.80;;;;;;;-145.06;100.00;60892.56;5886630;23;20018;-91
2023/06/19 10:48:09;;;;;;;0.80;0.80;;;;;;;-145.06;100.00;60892.56;5886479;23;20003;-92
2023/06/19 10:50:51;;;;;;;1.25;0.95;;;;;;;-145.06;100.00;60892.56;5886410;23;20006;-91
2023/06/19 10:53:32;;;;;;;1.10;0.88;;;;;;;-145.06;100.00;60892.56;5896873;23;20311;-91
2023/06/19 10:56:11;;;;;;;1.77;1.15;;;;;;;-145.06;100.00;60892.56;5886053;23;20006;-92
2023/06/19 10:59:13;;;;;;;1.13;1.00;;;;;;;-145.06;100.00;60892.56;5887112;23;20014;-93
2023/06/19 11:01:53;;;;;;;0.82;0.80;;;;;;;-145.06;100.00;60892.56;5886479;23;20387;-93
2023/06/19 11:04:37;;;;;;;0.90;0.80;;;;;;;-145.06;100.00;60892.56;5886213;23;20014;-92
2023/06/19 11:07:17;;;;;;;1.33;1.00;;;;;;;-145.06;100.00;60892.56;5886801;23;20034;-92
2023/06/19 11:09:58;;;;;;;0.95;0.85;;;;;;;-145.06;100.00;60892.56;5885854;23;20086;-93
2023/06/19 11:12:37;;;;;;;1.30;1.00;;;;;;;-145.06;100.00;60892.56;5887255;23;20453;-91
2023/06/19 11:15:19;;;;;;;0.95;0.70;;;;;;;-145.06;100.00;60892.56;5886601;23;20010;-92
2023/06/19 11:18:00;;;;;;;0.90;0.90;;;;;;;-145.06;100.00;60892.56;5886870;23;20010;-92
2023/06/19 11:20:50;;;;;;;1.75;0.63;;;;;;;-145.06;100.00;60892.56;5886642;23;20010;-91
2023/06/19 11:23:30;;;;;;;1.00;0.80;;;;;;;-145.06;100.00;60892.56;5886362;23;20003;-93
2023/06/19 11:26:10;;;;;;;0.95;0.75;;;;;;;-145.06;100.00;60892.56;5886395;23;20426;-92
2023/06/19 11:28:49;;;;;;;1.10;0.70;;;;;;;-145.06;100.00;60892.56;5887100;23;20011;-91
2023/06/19 11:31:28;;;;;;;1.00;0.82;;;;;;;-145.06;100.00;60892.56;5886755;23;20010;-92
2023/06/19 11:34:08;;;;;;;1.27;0.70;;;;;;;104.26;100.00;60892.56;5886702;23;20006;-93
2023/06/19 11:36:46;;;;;;;0.70;0.60;;;;;;;-145.06;100.00;60892.56;5886657;23;20144;-92
2023/06/19 11:39:25;;;;;;;1.10;0.77;;;;;;;-145.06;100.00;60892.56;5886036;23;20006;-93
2023/06/19 11:42:08;;;;;;;1.10;0.80;;;;;;;-145.06;100.00;60892.56;5887085;23;20007;-93
2023/06/19 11:44:54;;;;;;;0.70;0.60;;;;;;;-145.06;100.00;60892.56;5886395;23;20089;-92
2023/06/19 11:47:37;;;;;;;1.30;0.80;;;;;;;-145.06;100.00;60892.56;5886521;23;20006;-93
2023/06/19 11:50:16;;;;;;;0.80;0.60;;;;;;;29.54;100.00;60892.56;5886171;23;20010;-93
2023/06/19 11:52:57;;;;;;;0.90;0.70;;;;;;;-145.06;100.00;60892.56;5886529;23;20003;-92
2023/06/19 11:55:36;;;;;;;0.80;0.60;;;;;;;-145.06;100.00;60892.56;5886388;23;20315;-92
2023/06/19 11:58:15;;;;;;;0.60;0.50;;;;;;;-145.06;100.00;60892.56;5886216;23;20010;-93
2023/06/19 12:00:56;;;;;;;1.00;0.70;;;;;;;-145.06;100.00;60892.56;5886643;23;20007;-92
2023/06/19 12:03:35;;;;;;;0.55;0.40;;;;;;;-145.06;100.00;60892.56;5888014;23;20007;-92
2023/06/19 12:06:14;;;;;;;0.70;0.60;;;;;;;-145.06;100.00;60892.56;5888235;23;20014;-91
2023/06/19 12:08:53;;;;;;;0.70;0.60;;;;;;;-145.06;100.00;60892.56;5888353;23;20010;-93
2023/06/19 12:11:32;;;;;;;1.05;0.70;;;;;;;-145.06;100.00;60892.56;5888168;23;20007;-93
2023/06/19 12:14:11;;;;;;;0.88;0.73;;;;;;;-145.06;100.00;60892.56;5888443;23;20006;-93
2023/06/19 12:16:50;;;;;;;0.80;0.60;;;;;;;-145.06;100.00;60892.56;5888467;23;20041;-92
2023/06/19 12:19:29;;;;;;;0.70;0.57;;;;;;;-145.06;100.00;60892.56;5888031;23;20014;-92